sensor_id;sensor_type;location;lat;lon;timestamp;P1;durP1;ratioP1;P2;durP2;ratioP2
38208;SDS011;24016;52.102;11.584;2022-09-09T00:08:31;13.55;;;10.38;;
38208;SDS011;24016;52.102;11.584;2022-09-09T00:11:12;12.73;;;10.07;;
38208;SDS011;24016;52.102;11.584;2022-09-09T00:13:42;15.70;;;10.40;;
38208;SDS011;24016;52.102;11.584;2022-09-09T00:16:18;14.70;;;10.77;;
38208;SDS011;24016;52.102;11.584;2022-09-09T00:18:51;15.35;;;10.15;;
38208;SDS011;24016;52.102;11.584;2022-09-09T00:21:38;15.95;;;10.77;;
38208;SDS011;24016;52.102;11.584;2022-09-09T00:26:51;13.32;;;9.88;;
38208;SDS011;24016;52.102;11.584;2022-09-09T00:29:32;15.43;;;9.73;;
38208;SDS011;24016;52.102;11.584;2022-09-09T00:32:19;12.55;;;8.77;;
38208;SDS011;24016;52.102;11.584;2022-09-09T00:34:52;14.35;;;10.13;;
38208;SDS011;24016;52.102;11.584;2022-09-09T00:37:21;16.38;;;9.13;;
38208;SDS011;24016;52.102;11.584;2022-09-09T00:39:50;14.48;;;8.98;;
38208;SDS011;24016;52.102;11.584;2022-09-09T00:45:11;10.15;;;8.15;;
38208;SDS011;24016;52.102;11.584;2022-09-09T00:48:03;11.60;;;7.72;;
38208;SDS011;24016;52.102;11.584;2022-09-09T00:56:21;16.58;;;9.48;;
38208;SDS011;24016;52.102;11.584;2022-09-09T00:59:07;12.90;;;8.68;;
38208;SDS011;24016;52.102;11.584;2022-09-09T01:01:48;13.32;;;9.02;;
38208;SDS011;24016;52.102;11.584;2022-09-09T01:04:20;11.27;;;8.35;;
38208;SDS011;24016;52.102;11.584;2022-09-09T01:06:57;15.73;;;8.85;;
38208;SDS011;24016;52.102;11.584;2022-09-09T01:10:14;12.82;;;8.60;;
38208;SDS011;24016;52.102;11.584;2022-09-09T01:13:05;10.65;;;7.45;;
38208;SDS011;24016;52.102;11.584;2022-09-09T01:15:14;10.00;;;7.70;;
38208;SDS011;24016;52.102;11.584;2022-09-09T01:20:29;10.48;;;6.32;;
38208;SDS011;24016;52.102;11.584;2022-09-09T01:28:29;7.80;;;5.35;;
38208;SDS011;24016;52.102;11.584;2022-09-09T01:38:49;9.25;;;4.70;;
38208;SDS011;24016;52.102;11.584;2022-09-09T01:41:15;7.65;;;5.00;;
38208;SDS011;24016;52.102;11.584;2022-09-09T01:43:40;6.60;;;5.18;;
38208;SDS011;24016;52.102;11.584;2022-09-09T01:46:06;6.22;;;4.65;;
38208;SDS011;24016;52.102;11.584;2022-09-09T01:48:32;10.93;;;4.97;;
38208;SDS011;24016;52.102;11.584;2022-09-09T01:50:58;6.25;;;4.72;;
38208;SDS011;24016;52.102;11.584;2022-09-09T01:53:24;8.48;;;5.00;;
38208;SDS011;24016;52.102;11.584;2022-09-09T02:03:56;7.38;;;4.80;;
38208;SDS011;24016;52.102;11.584;2022-09-09T02:06:30;4.50;;;4.07;;
38208;SDS011;24016;52.102;11.584;2022-09-09T02:09:00;7.30;;;4.68;;
38208;SDS011;24016;52.102;11.584;2022-09-09T02:11:29;5.82;;;3.90;;
38208;SDS011;24016;52.102;11.584;2022-09-09T02:16:50;6.28;;;3.97;;
38208;SDS011;24016;52.102;11.584;2022-09-09T02:19:39;6.63;;;3.92;;
38208;SDS011;24016;52.102;11.584;2022-09-09T02:22:11;5.18;;;3.75;;
38208;SDS011;24016;52.102;11.584;2022-09-09T02:24:37;5.30;;;3.92;;
38208;SDS011;24016;52.102;11.584;2022-09-09T02:27:05;8.10;;;4.43;;
38208;SDS011;24016;52.102;11.584;2022-09-09T02:29:34;7.05;;;3.88;;
38208;SDS011;24016;52.102;11.584;2022-09-09T02:32:05;5.10;;;3.50;;
38208;SDS011;24016;52.102;11.584;2022-09-09T02:34:34;6.03;;;3.50;;
38208;SDS011;24016;52.102;11.584;2022-09-09T02:37:04;5.63;;;3.83;;
38208;SDS011;24016;52.102;11.584;2022-09-09T02:39:33;5.13;;;3.45;;
38208;SDS011;24016;52.102;11.584;2022-09-09T02:41:58;5.43;;;3.33;;
38208;SDS011;24016;52.102;11.584;2022-09-09T02:44:24;7.32;;;3.40;;
38208;SDS011;24016;52.102;11.584;2022-09-09T02:49:35;4.80;;;3.30;;
38208;SDS011;24016;52.102;11.584;2022-09-09T02:52:08;5.30;;;3.25;;
38208;SDS011;24016;52.102;11.584;2022-09-09T02:54:42;7.30;;;3.53;;
38208;SDS011;24016;52.102;11.584;2022-09-09T02:57:11;4.32;;;3.17;;
38208;SDS011;24016;52.102;11.584;2022-09-09T02:59:43;7.80;;;3.78;;
38208;SDS011;24016;52.102;11.584;2022-09-09T03:02:09;5.20;;;3.60;;
38208;SDS011;24016;52.102;11.584;2022-09-09T03:04:36;8.15;;;3.80;;
38208;SDS011;24016;52.102;11.584;2022-09-09T03:07:03;5.00;;;3.63;;
38208;SDS011;24016;52.102;11.584;2022-09-09T03:09:29;5.43;;;4.00;;
38208;SDS011;24016;52.102;11.584;2022-09-09T03:11:55;6.00;;;4.15;;
38208;SDS011;24016;52.102;11.584;2022-09-09T03:14:21;14.35;;;4.78;;
38208;SDS011;24016;52.102;11.584;2022-09-09T03:16:50;6.85;;;4.85;;
38208;SDS011;24016;52.102;11.584;2022-09-09T03:19:17;7.13;;;4.57;;
38208;SDS011;24016;52.102;11.584;2022-09-09T03:21:43;7.75;;;4.80;;
38208;SDS011;24016;52.102;11.584;2022-09-09T03:24:10;6.07;;;4.30;;
38208;SDS011;24016;52.102;11.584;2022-09-09T03:26:35;7.05;;;4.72;;
38208;SDS011;24016;52.102;11.584;2022-09-09T03:29:02;15.95;;;4.70;;
38208;SDS011;24016;52.102;11.584;2022-09-09T03:31:31;6.82;;;4.78;;
38208;SDS011;24016;52.102;11.584;2022-09-09T03:33:57;6.78;;;4.70;;
38208;SDS011;24016;52.102;11.584;2022-09-09T03:36:23;7.18;;;5.03;;
38208;SDS011;24016;52.102;11.584;2022-09-09T03:38:51;8.93;;;4.80;;
38208;SDS011;24016;52.102;11.584;2022-09-09T03:41:16;7.15;;;4.80;;
38208;SDS011;24016;52.102;11.584;2022-09-09T03:43:42;7.25;;;4.38;;
38208;SDS011;24016;52.102;11.584;2022-09-09T03:46:08;8.45;;;4.40;;
38208;SDS011;24016;52.102;11.584;2022-09-09T03:48:33;6.95;;;4.75;;
38208;SDS011;24016;52.102;11.584;2022-09-09T03:50:59;6.88;;;4.32;;
38208;SDS011;24016;52.102;11.584;2022-09-09T03:53:26;7.35;;;4.40;;
38208;SDS011;24016;52.102;11.584;2022-09-09T03:55:54;10.00;;;4.70;;
38208;SDS011;24016;52.102;11.584;2022-09-09T03:58:21;9.38;;;5.10;;
38208;SDS011;24016;52.102;11.584;2022-09-09T04:00:52;10.30;;;4.78;;
38208;SDS011;24016;52.102;11.584;2022-09-09T04:03:19;11.53;;;4.90;;
38208;SDS011;24016;52.102;11.584;2022-09-09T04:05:45;11.43;;;4.55;;
38208;SDS011;24016;52.102;11.584;2022-09-09T04:08:14;5.90;;;4.28;;
38208;SDS011;24016;52.102;11.584;2022-09-09T04:10:39;6.57;;;4.70;;
38208;SDS011;24016;52.102;11.584;2022-09-09T04:13:05;6.50;;;4.32;;
38208;SDS011;24016;52.102;11.584;2022-09-09T04:15:31;9.20;;;4.93;;
38208;SDS011;24016;52.102;11.584;2022-09-09T04:17:57;12.15;;;4.43;;
38208;SDS011;24016;52.102;11.584;2022-09-09T04:20:22;12.25;;;4.35;;
38208;SDS011;24016;52.102;11.584;2022-09-09T04:22:48;7.63;;;4.78;;
38208;SDS011;24016;52.102;11.584;2022-09-09T04:25:14;8.85;;;4.55;;
38208;SDS011;24016;52.102;11.584;2022-09-09T04:27:39;8.73;;;4.40;;
38208;SDS011;24016;52.102;11.584;2022-09-09T04:30:05;8.13;;;4.70;;
38208;SDS011;24016;52.102;11.584;2022-09-09T04:32:32;11.88;;;5.03;;
38208;SDS011;24016;52.102;11.584;2022-09-09T04:34:58;8.65;;;5.32;;
38208;SDS011;24016;52.102;11.584;2022-09-09T04:37:24;8.25;;;5.88;;
38208;SDS011;24016;52.102;11.584;2022-09-09T04:39:49;7.47;;;5.32;;
38208;SDS011;24016;52.102;11.584;2022-09-09T04:42:15;10.75;;;5.43;;
38208;SDS011;24016;52.102;11.584;2022-09-09T04:44:42;9.18;;;5.50;;
38208;SDS011;24016;52.102;11.584;2022-09-09T04:47:08;9.02;;;5.20;;
38208;SDS011;24016;52.102;11.584;2022-09-09T04:49:34;14.13;;;5.97;;
38208;SDS011;24016;52.102;11.584;2022-09-09T04:52:00;11.00;;;5.88;;
38208;SDS011;24016;52.102;11.584;2022-09-09T04:54:26;11.80;;;5.25;;
38208;SDS011;24016;52.102;11.584;2022-09-09T04:56:52;12.07;;;5.97;;
38208;SDS011;24016;52.102;11.584;2022-09-09T04:59:18;7.35;;;5.10;;
38208;SDS011;24016;52.102;11.584;2022-09-09T05:01:43;7.88;;;4.88;;
38208;SDS011;24016;52.102;11.584;2022-09-09T05:04:09;8.15;;;5.07;;
38208;SDS011;24016;52.102;11.584;2022-09-09T05:06:34;9.00;;;4.95;;
38208;SDS011;24016;52.102;11.584;2022-09-09T05:09:01;12.85;;;4.90;;
38208;SDS011;24016;52.102;11.584;2022-09-09T05:11:28;11.27;;;4.70;;
38208;SDS011;24016;52.102;11.584;2022-09-09T05:13:55;8.25;;;4.80;;
38208;SDS011;24016;52.102;11.584;2022-09-09T05:16:22;6.88;;;4.45;;
38208;SDS011;24016;52.102;11.584;2022-09-09T05:18:47;8.88;;;3.92;;
38208;SDS011;24016;52.102;11.584;2022-09-09T05:21:15;8.98;;;4.45;;
38208;SDS011;24016;52.102;11.584;2022-09-09T05:23:42;8.45;;;3.83;;
38208;SDS011;24016;52.102;11.584;2022-09-09T05:26:11;9.73;;;4.32;;
38208;SDS011;24016;52.102;11.584;2022-09-09T05:28:39;9.60;;;3.80;;
38208;SDS011;24016;52.102;11.584;2022-09-09T05:31:05;10.63;;;4.18;;
38208;SDS011;24016;52.102;11.584;2022-09-09T05:33:39;5.78;;;3.80;;
38208;SDS011;24016;52.102;11.584;2022-09-09T05:36:10;5.63;;;3.22;;
38208;SDS011;24016;52.102;11.584;2022-09-09T05:38:40;7.72;;;3.40;;
38208;SDS011;24016;52.102;11.584;2022-09-09T05:41:06;9.90;;;3.28;;
38208;SDS011;24016;52.102;11.584;2022-09-09T05:43:33;9.43;;;3.08;;
38208;SDS011;24016;52.102;11.584;2022-09-09T05:46:00;6.65;;;2.80;;
38208;SDS011;24016;52.102;11.584;2022-09-09T05:48:31;6.30;;;2.90;;
38208;SDS011;24016;52.102;11.584;2022-09-09T05:50:57;6.97;;;2.75;;
38208;SDS011;24016;52.102;11.584;2022-09-09T05:53:27;5.32;;;2.70;;
38208;SDS011;24016;52.102;11.584;2022-09-09T05:56:03;6.03;;;2.50;;
38208;SDS011;24016;52.102;11.584;2022-09-09T05:58:31;7.32;;;2.60;;
38208;SDS011;24016;52.102;11.584;2022-09-09T06:01:03;10.88;;;3.05;;
38208;SDS011;24016;52.102;11.584;2022-09-09T06:03:39;8.98;;;2.60;;
38208;SDS011;24016;52.102;11.584;2022-09-09T06:06:16;8.63;;;3.53;;
38208;SDS011;24016;52.102;11.584;2022-09-09T06:08:45;6.80;;;2.33;;
38208;SDS011;24016;52.102;11.584;2022-09-09T06:11:12;8.60;;;2.33;;
38208;SDS011;24016;52.102;11.584;2022-09-09T06:13:40;8.30;;;2.25;;
38208;SDS011;24016;52.102;11.584;2022-09-09T06:16:08;5.97;;;2.25;;
38208;SDS011;24016;52.102;11.584;2022-09-09T06:18:36;4.60;;;2.20;;
38208;SDS011;24016;52.102;11.584;2022-09-09T06:21:03;5.30;;;2.30;;
38208;SDS011;24016;52.102;11.584;2022-09-09T06:23:31;6.72;;;3.00;;
38208;SDS011;24016;52.102;11.584;2022-09-09T06:26:05;6.57;;;3.53;;
38208;SDS011;24016;52.102;11.584;2022-09-09T06:28:34;7.95;;;3.58;;
38208;SDS011;24016;52.102;11.584;2022-09-09T06:31:01;6.97;;;3.83;;
38208;SDS011;24016;52.102;11.584;2022-09-09T06:33:32;4.63;;;4.00;;
38208;SDS011;24016;52.102;11.584;2022-09-09T06:36:02;6.55;;;3.78;;
38208;SDS011;24016;52.102;11.584;2022-09-09T06:38:28;6.32;;;3.50;;
38208;SDS011;24016;52.102;11.584;2022-09-09T06:40:54;5.88;;;3.28;;
38208;SDS011;24016;52.102;11.584;2022-09-09T06:43:22;6.95;;;3.13;;
38208;SDS011;24016;52.102;11.584;2022-09-09T06:45:58;6.55;;;2.95;;
38208;SDS011;24016;52.102;11.584;2022-09-09T06:48:25;5.47;;;2.78;;
38208;SDS011;24016;52.102;11.584;2022-09-09T06:50:59;4.32;;;2.30;;
38208;SDS011;24016;52.102;11.584;2022-09-09T06:53:26;7.25;;;2.33;;
38208;SDS011;24016;52.102;11.584;2022-09-09T06:55:52;4.13;;;1.98;;
38208;SDS011;24016;52.102;11.584;2022-09-09T06:58:17;4.90;;;2.10;;
38208;SDS011;24016;52.102;11.584;2022-09-09T07:00:43;5.45;;;2.40;;
38208;SDS011;24016;52.102;11.584;2022-09-09T07:03:09;5.85;;;2.47;;
38208;SDS011;24016;52.102;11.584;2022-09-09T07:05:35;6.63;;;2.47;;
38208;SDS011;24016;52.102;11.584;2022-09-09T07:08:02;6.90;;;2.10;;
38208;SDS011;24016;52.102;11.584;2022-09-09T07:10:27;4.82;;;2.00;;
38208;SDS011;24016;52.102;11.584;2022-09-09T07:12:53;5.25;;;2.13;;
38208;SDS011;24016;52.102;11.584;2022-09-09T07:15:19;5.85;;;2.20;;
38208;SDS011;24016;52.102;11.584;2022-09-09T07:17:46;5.53;;;2.15;;
38208;SDS011;24016;52.102;11.584;2022-09-09T07:20:11;4.90;;;2.00;;
38208;SDS011;24016;52.102;11.584;2022-09-09T07:22:37;4.32;;;2.00;;
38208;SDS011;24016;52.102;11.584;2022-09-09T07:25:03;4.10;;;1.75;;
38208;SDS011;24016;52.102;11.584;2022-09-09T07:27:29;5.15;;;2.00;;
38208;SDS011;24016;52.102;11.584;2022-09-09T07:29:55;8.05;;;2.22;;
38208;SDS011;24016;52.102;11.584;2022-09-09T07:32:20;6.15;;;2.08;;
38208;SDS011;24016;52.102;11.584;2022-09-09T07:34:46;3.90;;;1.60;;
38208;SDS011;24016;52.102;11.584;2022-09-09T07:37:12;4.65;;;2.10;;
38208;SDS011;24016;52.102;11.584;2022-09-09T07:39:38;4.18;;;1.50;;
38208;SDS011;24016;52.102;11.584;2022-09-09T07:42:05;6.00;;;1.60;;
38208;SDS011;24016;52.102;11.584;2022-09-09T07:44:31;10.20;;;1.90;;
38208;SDS011;24016;52.102;11.584;2022-09-09T07:47:00;5.70;;;1.77;;
38208;SDS011;24016;52.102;11.584;2022-09-09T07:49:26;6.88;;;2.10;;
38208;SDS011;24016;52.102;11.584;2022-09-09T07:51:52;3.75;;;1.38;;
38208;SDS011;24016;52.102;11.584;2022-09-09T07:54:18;6.57;;;1.80;;
38208;SDS011;24016;52.102;11.584;2022-09-09T07:56:45;4.95;;;1.60;;
38208;SDS011;24016;52.102;11.584;2022-09-09T07:59:11;3.88;;;1.25;;
38208;SDS011;24016;52.102;11.584;2022-09-09T08:01:41;4.10;;;1.42;;
38208;SDS011;24016;52.102;11.584;2022-09-09T08:04:11;5.43;;;1.83;;
38208;SDS011;24016;52.102;11.584;2022-09-09T08:06:42;8.70;;;2.10;;
38208;SDS011;24016;52.102;11.584;2022-09-09T08:09:10;3.85;;;1.52;;
38208;SDS011;24016;52.102;11.584;2022-09-09T08:11:36;4.05;;;1.70;;
38208;SDS011;24016;52.102;11.584;2022-09-09T08:14:03;3.30;;;1.50;;
38208;SDS011;24016;52.102;11.584;2022-09-09T08:16:30;6.20;;;1.70;;
38208;SDS011;24016;52.102;11.584;2022-09-09T08:18:57;5.25;;;1.50;;
38208;SDS011;24016;52.102;11.584;2022-09-09T08:21:25;5.60;;;1.90;;
38208;SDS011;24016;52.102;11.584;2022-09-09T08:23:56;4.78;;;1.50;;
38208;SDS011;24016;52.102;11.584;2022-09-09T08:26:23;9.63;;;1.73;;
38208;SDS011;24016;52.102;11.584;2022-09-09T08:28:54;7.03;;;1.50;;
38208;SDS011;24016;52.102;11.584;2022-09-09T08:31:25;3.63;;;1.30;;
38208;SDS011;24016;52.102;11.584;2022-09-09T08:33:57;3.90;;;1.40;;
38208;SDS011;24016;52.102;11.584;2022-09-09T08:36:25;4.50;;;1.38;;
38208;SDS011;24016;52.102;11.584;2022-09-09T08:38:53;6.70;;;1.50;;
38208;SDS011;24016;52.102;11.584;2022-09-09T08:44:22;4.65;;;1.45;;
38208;SDS011;24016;52.102;11.584;2022-09-09T08:53:04;5.10;;;1.42;;
38208;SDS011;24016;52.102;11.584;2022-09-09T08:58:30;2.38;;;1.10;;
38208;SDS011;24016;52.102;11.584;2022-09-09T09:01:09;6.43;;;1.42;;
38208;SDS011;24016;52.102;11.584;2022-09-09T09:03:48;2.92;;;1.15;;
38208;SDS011;24016;52.102;11.584;2022-09-09T09:11:40;5.30;;;1.23;;
38208;SDS011;24016;52.102;11.584;2022-09-09T09:14:23;2.60;;;1.27;;
38208;SDS011;24016;52.102;11.584;2022-09-09T09:19:38;2.75;;;1.05;;
38208;SDS011;24016;52.102;11.584;2022-09-09T09:24:55;5.35;;;1.48;;
38208;SDS011;24016;52.102;11.584;2022-09-09T09:27:59;6.28;;;1.23;;
38208;SDS011;24016;52.102;11.584;2022-09-09T09:33:44;6.45;;;1.58;;
38208;SDS011;24016;52.102;11.584;2022-09-09T09:36:14;3.85;;;1.20;;
38208;SDS011;24016;52.102;11.584;2022-09-09T09:38:51;4.35;;;1.38;;
38208;SDS011;24016;52.102;11.584;2022-09-09T09:41:36;5.72;;;1.27;;
38208;SDS011;24016;52.102;11.584;2022-09-09T09:44:19;4.63;;;1.60;;
38208;SDS011;24016;52.102;11.584;2022-09-09T09:46:51;3.53;;;1.33;;
38208;SDS011;24016;52.102;11.584;2022-09-09T09:49:18;5.00;;;1.30;;
38208;SDS011;24016;52.102;11.584;2022-09-09T09:51:44;2.67;;;1.00;;
38208;SDS011;24016;52.102;11.584;2022-09-09T09:56:38;5.88;;;1.17;;
38208;SDS011;24016;52.102;11.584;2022-09-09T09:59:05;3.72;;;1.17;;
38208;SDS011;24016;52.102;11.584;2022-09-09T10:01:44;2.67;;;0.90;;
38208;SDS011;24016;52.102;11.584;2022-09-09T10:04:17;3.70;;;1.20;;
38208;SDS011;24016;52.102;11.584;2022-09-09T10:06:45;3.35;;;1.10;;
38208;SDS011;24016;52.102;11.584;2022-09-09T10:09:20;7.70;;;1.30;;
38208;SDS011;24016;52.102;11.584;2022-09-09T10:12:18;7.43;;;1.75;;
38208;SDS011;24016;52.102;11.584;2022-09-09T10:20:35;6.05;;;1.38;;
38208;SDS011;24016;52.102;11.584;2022-09-09T10:26:22;3.08;;;1.00;;
38208;SDS011;24016;52.102;11.584;2022-09-09T10:29:17;4.63;;;1.00;;
38208;SDS011;24016;52.102;11.584;2022-09-09T10:32:03;4.88;;;1.23;;
38208;SDS011;24016;52.102;11.584;2022-09-09T10:37:21;3.75;;;1.13;;
38208;SDS011;24016;52.102;11.584;2022-09-09T10:43:18;3.92;;;1.30;;
38208;SDS011;24016;52.102;11.584;2022-09-09T10:46:06;4.43;;;1.20;;
38208;SDS011;24016;52.102;11.584;2022-09-09T10:51:48;3.60;;;1.17;;
38208;SDS011;24016;52.102;11.584;2022-09-09T10:54:26;6.88;;;1.52;;
38208;SDS011;24016;52.102;11.584;2022-09-09T10:57:02;4.03;;;1.35;;
38208;SDS011;24016;52.102;11.584;2022-09-09T10:59:37;4.32;;;1.60;;
38208;SDS011;24016;52.102;11.584;2022-09-09T11:07:26;4.10;;;1.60;;
38208;SDS011;24016;52.102;11.584;2022-09-09T11:09:59;4.88;;;1.05;;
38208;SDS011;24016;52.102;11.584;2022-09-09T11:12:29;3.30;;;1.13;;
38208;SDS011;24016;52.102;11.584;2022-09-09T11:14:59;3.70;;;0.98;;
38208;SDS011;24016;52.102;11.584;2022-09-09T11:17:36;3.22;;;1.13;;
38208;SDS011;24016;52.102;11.584;2022-09-09T11:20:10;4.63;;;1.20;;
38208;SDS011;24016;52.102;11.584;2022-09-09T11:22:37;5.32;;;1.05;;
38208;SDS011;24016;52.102;11.584;2022-09-09T11:25:29;3.15;;;1.10;;
38208;SDS011;24016;52.102;11.584;2022-09-09T11:36:25;2.65;;;1.20;;
38208;SDS011;24016;52.102;11.584;2022-09-09T11:41:51;3.70;;;1.13;;
38208;SDS011;24016;52.102;11.584;2022-09-09T11:44:18;5.15;;;1.17;;
38208;SDS011;24016;52.102;11.584;2022-09-09T11:46:50;3.85;;;1.48;;
38208;SDS011;24016;52.102;11.584;2022-09-09T11:49:50;3.15;;;1.10;;
38208;SDS011;24016;52.102;11.584;2022-09-09T11:52:20;3.08;;;1.20;;
38208;SDS011;24016;52.102;11.584;2022-09-09T11:54:49;4.55;;;1.35;;
38208;SDS011;24016;52.102;11.584;2022-09-09T11:57:25;4.25;;;1.50;;
38208;SDS011;24016;52.102;11.584;2022-09-09T11:59:59;2.05;;;0.80;;
38208;SDS011;24016;52.102;11.584;2022-09-09T12:02:26;3.53;;;1.17;;
38208;SDS011;24016;52.102;11.584;2022-09-09T12:05:06;3.20;;;0.90;;
38208;SDS011;24016;52.102;11.584;2022-09-09T12:10:27;4.47;;;1.35;;
38208;SDS011;24016;52.102;11.584;2022-09-09T12:13:07;3.30;;;1.30;;
38208;SDS011;24016;52.102;11.584;2022-09-09T12:15:47;5.10;;;0.90;;
38208;SDS011;24016;52.102;11.584;2022-09-09T12:18:14;2.95;;;1.10;;
38208;SDS011;24016;52.102;11.584;2022-09-09T12:23:50;5.68;;;1.55;;
38208;SDS011;24016;52.102;11.584;2022-09-09T12:31:58;6.55;;;1.60;;
38208;SDS011;24016;52.102;11.584;2022-09-09T12:34:41;3.30;;;1.25;;
38208;SDS011;24016;52.102;11.584;2022-09-09T12:37:36;4.47;;;1.30;;
38208;SDS011;24016;52.102;11.584;2022-09-09T12:40:04;4.68;;;1.33;;
38208;SDS011;24016;52.102;11.584;2022-09-09T12:42:49;3.50;;;1.00;;
38208;SDS011;24016;52.102;11.584;2022-09-09T12:45:16;6.22;;;1.20;;
38208;SDS011;24016;52.102;11.584;2022-09-09T12:48:08;4.35;;;1.48;;
38208;SDS011;24016;52.102;11.584;2022-09-09T12:50:44;4.30;;;1.30;;
38208;SDS011;24016;52.102;11.584;2022-09-09T12:55:52;6.68;;;1.13;;
38208;SDS011;24016;52.102;11.584;2022-09-09T12:58:44;6.05;;;1.23;;
38208;SDS011;24016;52.102;11.584;2022-09-09T13:01:18;3.17;;;0.98;;
38208;SDS011;24016;52.102;11.584;2022-09-09T13:03:47;4.38;;;1.50;;
38208;SDS011;24016;52.102;11.584;2022-09-09T13:06:16;5.53;;;1.50;;
38208;SDS011;24016;52.102;11.584;2022-09-09T13:08:47;3.38;;;1.08;;
38208;SDS011;24016;52.102;11.584;2022-09-09T13:11:15;3.25;;;0.68;;
38208;SDS011;24016;52.102;11.584;2022-09-09T13:13:49;4.18;;;1.10;;
38208;SDS011;24016;52.102;11.584;2022-09-09T13:16:20;2.17;;;0.98;;
38208;SDS011;24016;52.102;11.584;2022-09-09T13:18:56;2.42;;;0.75;;
38208;SDS011;24016;52.102;11.584;2022-09-09T13:21:37;2.58;;;1.08;;
38208;SDS011;24016;52.102;11.584;2022-09-09T13:24:04;4.43;;;1.13;;
38208;SDS011;24016;52.102;11.584;2022-09-09T13:26:32;5.40;;;1.20;;
38208;SDS011;24016;52.102;11.584;2022-09-09T13:29:17;3.28;;;1.20;;
38208;SDS011;24016;52.102;11.584;2022-09-09T13:31:44;2.90;;;1.00;;
38208;SDS011;24016;52.102;11.584;2022-09-09T13:34:14;2.63;;;1.00;;
38208;SDS011;24016;52.102;11.584;2022-09-09T13:37:04;5.50;;;1.48;;
38208;SDS011;24016;52.102;11.584;2022-09-09T13:39:34;4.68;;;1.25;;
38208;SDS011;24016;52.102;11.584;2022-09-09T13:42:02;4.70;;;0.80;;
38208;SDS011;24016;52.102;11.584;2022-09-09T13:44:29;3.10;;;0.80;;
38208;SDS011;24016;52.102;11.584;2022-09-09T13:47:00;3.67;;;1.30;;
38208;SDS011;24016;52.102;11.584;2022-09-09T13:49:29;5.70;;;1.20;;
38208;SDS011;24016;52.102;11.584;2022-09-09T13:52:11;5.72;;;1.15;;
38208;SDS011;24016;52.102;11.584;2022-09-09T13:54:39;6.00;;;1.20;;
38208;SDS011;24016;52.102;11.584;2022-09-09T13:57:05;5.45;;;1.20;;
38208;SDS011;24016;52.102;11.584;2022-09-09T13:59:44;4.93;;;1.60;;
38208;SDS011;24016;52.102;11.584;2022-09-09T14:02:11;4.65;;;1.23;;
38208;SDS011;24016;52.102;11.584;2022-09-09T14:04:36;3.25;;;1.20;;
38208;SDS011;24016;52.102;11.584;2022-09-09T14:07:02;9.18;;;1.40;;
38208;SDS011;24016;52.102;11.584;2022-09-09T14:09:28;10.05;;;1.58;;
38208;SDS011;24016;52.102;11.584;2022-09-09T14:11:54;6.53;;;1.45;;
38208;SDS011;24016;52.102;11.584;2022-09-09T14:14:20;4.65;;;1.48;;
38208;SDS011;24016;52.102;11.584;2022-09-09T14:16:46;4.28;;;1.40;;
38208;SDS011;24016;52.102;11.584;2022-09-09T14:19:12;6.88;;;1.55;;
38208;SDS011;24016;52.102;11.584;2022-09-09T14:21:37;9.75;;;1.50;;
38208;SDS011;24016;52.102;11.584;2022-09-09T14:24:03;3.47;;;1.30;;
38208;SDS011;24016;52.102;11.584;2022-09-09T14:26:29;6.65;;;1.20;;
38208;SDS011;24016;52.102;11.584;2022-09-09T14:28:55;6.47;;;1.55;;
38208;SDS011;24016;52.102;11.584;2022-09-09T14:31:21;6.90;;;1.70;;
38208;SDS011;24016;52.102;11.584;2022-09-09T14:33:47;4.70;;;1.90;;
38208;SDS011;24016;52.102;11.584;2022-09-09T14:36:12;5.18;;;1.80;;
38208;SDS011;24016;52.102;11.584;2022-09-09T14:38:38;4.45;;;1.20;;
38208;SDS011;24016;52.102;11.584;2022-09-09T14:41:04;3.53;;;1.17;;
38208;SDS011;24016;52.102;11.584;2022-09-09T14:43:30;3.97;;;1.00;;
38208;SDS011;24016;52.102;11.584;2022-09-09T14:45:57;4.53;;;1.48;;
38208;SDS011;24016;52.102;11.584;2022-09-09T14:48:30;4.47;;;1.20;;
38208;SDS011;24016;52.102;11.584;2022-09-09T14:50:56;2.03;;;1.10;;
38208;SDS011;24016;52.102;11.584;2022-09-09T14:53:21;2.78;;;1.05;;
38208;SDS011;24016;52.102;11.584;2022-09-09T14:55:47;5.70;;;1.00;;
38208;SDS011;24016;52.102;11.584;2022-09-09T14:58:13;3.42;;;1.00;;
38208;SDS011;24016;52.102;11.584;2022-09-09T15:00:38;2.67;;;0.95;;
38208;SDS011;24016;52.102;11.584;2022-09-09T15:03:04;2.67;;;0.80;;
38208;SDS011;24016;52.102;11.584;2022-09-09T15:05:30;2.40;;;1.00;;
38208;SDS011;24016;52.102;11.584;2022-09-09T15:07:56;3.90;;;1.20;;
38208;SDS011;24016;52.102;11.584;2022-09-09T15:10:23;3.97;;;1.40;;
38208;SDS011;24016;52.102;11.584;2022-09-09T15:12:49;2.40;;;1.13;;
38208;SDS011;24016;52.102;11.584;2022-09-09T15:15:14;2.13;;;0.88;;
38208;SDS011;24016;52.102;11.584;2022-09-09T15:17:40;3.17;;;0.95;;
38208;SDS011;24016;52.102;11.584;2022-09-09T15:20:05;1.95;;;0.80;;
38208;SDS011;24016;52.102;11.584;2022-09-09T15:22:32;1.65;;;0.80;;
38208;SDS011;24016;52.102;11.584;2022-09-09T15:24:58;3.30;;;1.40;;
38208;SDS011;24016;52.102;11.584;2022-09-09T15:27:24;4.28;;;1.15;;
38208;SDS011;24016;52.102;11.584;2022-09-09T15:29:49;3.45;;;1.10;;
38208;SDS011;24016;52.102;11.584;2022-09-09T15:32:16;2.90;;;0.93;;
38208;SDS011;24016;52.102;11.584;2022-09-09T15:34:42;1.60;;;0.70;;
38208;SDS011;24016;52.102;11.584;2022-09-09T15:37:09;4.95;;;1.20;;
38208;SDS011;24016;52.102;11.584;2022-09-09T15:39:37;2.95;;;1.00;;
38208;SDS011;24016;52.102;11.584;2022-09-09T15:42:04;2.33;;;0.82;;
38208;SDS011;24016;52.102;11.584;2022-09-09T15:44:29;2.00;;;0.95;;
38208;SDS011;24016;52.102;11.584;2022-09-09T15:47:02;2.10;;;1.05;;
38208;SDS011;24016;52.102;11.584;2022-09-09T15:49:28;1.15;;;0.63;;
38208;SDS011;24016;52.102;11.584;2022-09-09T15:51:54;4.95;;;1.20;;
38208;SDS011;24016;52.102;11.584;2022-09-09T15:54:22;2.95;;;0.80;;
38208;SDS011;24016;52.102;11.584;2022-09-09T15:56:56;5.25;;;1.20;;
38208;SDS011;24016;52.102;11.584;2022-09-09T15:59:23;4.03;;;1.17;;
38208;SDS011;24016;52.102;11.584;2022-09-09T16:01:49;4.90;;;1.40;;
38208;SDS011;24016;52.102;11.584;2022-09-09T16:04:16;3.10;;;1.05;;
38208;SDS011;24016;52.102;11.584;2022-09-09T16:06:48;3.58;;;0.90;;
38208;SDS011;24016;52.102;11.584;2022-09-09T16:09:15;2.95;;;0.95;;
38208;SDS011;24016;52.102;11.584;2022-09-09T16:11:40;2.95;;;0.90;;
38208;SDS011;24016;52.102;11.584;2022-09-09T16:14:06;2.00;;;0.82;;
38208;SDS011;24016;52.102;11.584;2022-09-09T16:16:31;3.38;;;1.20;;
38208;SDS011;24016;52.102;11.584;2022-09-09T16:19:02;3.03;;;1.20;;
38208;SDS011;24016;52.102;11.584;2022-09-09T16:21:31;2.88;;;0.73;;
38208;SDS011;24016;52.102;11.584;2022-09-09T16:23:59;4.60;;;0.98;;
38208;SDS011;24016;52.102;11.584;2022-09-09T16:26:26;2.30;;;0.80;;
38208;SDS011;24016;52.102;11.584;2022-09-09T16:28:52;5.63;;;1.98;;
38208;SDS011;24016;52.102;11.584;2022-09-09T16:31:20;5.88;;;2.72;;
38208;SDS011;24016;52.102;11.584;2022-09-09T16:33:48;3.88;;;2.35;;
38208;SDS011;24016;52.102;11.584;2022-09-09T16:36:16;5.10;;;1.35;;
38208;SDS011;24016;52.102;11.584;2022-09-09T16:38:46;3.22;;;1.55;;
38208;SDS011;24016;52.102;11.584;2022-09-09T16:41:12;5.05;;;1.38;;
38208;SDS011;24016;52.102;11.584;2022-09-09T16:43:39;5.32;;;0.98;;
38208;SDS011;24016;52.102;11.584;2022-09-09T16:46:15;3.90;;;1.15;;
38208;SDS011;24016;52.102;11.584;2022-09-09T16:48:43;2.40;;;1.10;;
38208;SDS011;24016;52.102;11.584;2022-09-09T16:51:16;3.72;;;0.93;;
38208;SDS011;24016;52.102;11.584;2022-09-09T16:53:50;3.00;;;1.45;;
38208;SDS011;24016;52.102;11.584;2022-09-09T16:56:18;5.10;;;2.88;;